Time;durP1;ratioP1;P1;durP2;ratioP2;P2;SDS_P1;SDS_P2;PMS_P1;PMS_P2;Temp;Humidity;BMP_temperature;BMP_pressure;BME280_temperature;BME280_humidity;BME280_pressure;Samples;Min_cycle;Max_cycle;Signal;HPM_P1;HPM_P2
2023/01/03 00:01:19;;;;;;;2.67;1.50;;;10.40;76.10;;;;;;5023800;28;20539;-74
2023/01/03 00:03:44;;;;;;;2.03;1.17;;;10.30;76.20;;;;;;5025597;28;20483;-74
2023/01/03 00:06:17;;;;;;;1.40;1.10;;;10.40;75.90;;;;;;5028225;28;20455;-75
2023/01/03 00:08:43;;;;;;;1.40;1.00;;;10.40;75.80;;;;;;5018558;28;20967;-73
2023/01/03 00:11:14;;;;;;;1.20;0.93;;;10.40;75.70;;;;;;5025424;28;20416;-75
2023/01/03 00:13:40;;;;;;;2.20;1.17;;;10.40;75.80;;;;;;5024814;28;20423;-73
2023/01/03 00:16:14;;;;;;;1.27;1.07;;;10.40;75.90;;;;;;5028180;28;20462;-74
2023/01/03 00:18:40;;;;;;;1.80;1.03;;;10.40;75.80;;;;;;5024509;28;20423;-74
2023/01/03 00:21:05;;;;;;;1.77;1.07;;;10.30;76.10;;;;;;5022329;28;21001;-73
2023/01/03 00:23:31;;;;;;;2.30;1.20;;;10.30;76.20;;;;;;5030026;28;20616;-73
2023/01/03 00:25:56;;;;;;;1.30;1.00;;;10.20;76.40;;;;;;5029376;28;20212;-72
2023/01/03 00:28:22;;;;;;;2.10;1.10;;;10.20;76.50;;;;;;5028934;28;20220;-73
2023/01/03 00:30:47;;;;;;;4.90;1.30;;;10.20;76.50;;;;;;5029375;28;20181;-74
2023/01/03 00:33:13;;;;;;;3.27;1.30;;;10.30;76.50;;;;;;5028952;28;20224;-75
2023/01/03 00:35:38;;;;;;;1.47;1.03;;;10.20;76.40;;;;;;5028194;28;20212;-74
2023/01/03 00:38:04;;;;;;;3.67;1.97;;;10.20;76.50;;;;;;5026977;28;20185;-73
2023/01/03 00:40:30;;;;;;;1.87;1.23;;;10.20;76.50;;;;;;5027478;28;20185;-75
2023/01/03 00:45:39;;;;;;;2.07;1.03;;;10.20;76.70;;;;;;5025636;28;20259;-73
2023/01/03 00:48:05;;;;;;;1.90;1.00;;;10.20;76.80;;;;;;5022844;28;20427;-74
2023/01/03 00:50:30;;;;;;;1.03;0.90;;;10.20;76.80;;;;;;5027730;28;20185;-74
2023/01/03 00:52:56;;;;;;;1.50;1.03;;;10.20;76.80;;;;;;5032710;28;20209;-74
2023/01/03 00:55:21;;;;;;;2.03;1.20;;;10.20;76.80;;;;;;5027882;28;20217;-73
2023/01/03 00:57:47;;;;;;;2.93;1.10;;;10.20;76.80;;;;;;5031818;28;20216;-73
2023/01/03 01:00:13;;;;;;;1.20;1.00;;;10.20;76.80;;;;;;5028114;28;20189;-75
2023/01/03 01:02:39;;;;;;;2.80;1.30;;;10.20;76.70;;;;;;5033453;28;20223;-73
2023/01/03 01:05:05;;;;;;;1.70;1.03;;;10.30;76.80;;;;;;5034156;28;20455;-74
2023/01/03 01:07:30;;;;;;;1.97;1.30;;;10.30;76.50;;;;;;5027776;28;20265;-74
2023/01/03 01:09:56;;;;;;;4.13;1.10;;;10.20;76.70;;;;;;5030707;28;20181;-76
2023/01/03 01:12:21;;;;;;;3.00;1.00;;;10.20;76.80;;;;;;5035653;28;20216;-73
2023/01/03 01:14:47;;;;;;;2.63;1.10;;;10.20;76.70;;;;;;5032408;28;20212;-72
2023/01/03 01:17:12;;;;;;;1.20;1.00;;;10.20;76.70;;;;;;5034071;28;20224;-74
2023/01/03 01:19:41;;;;;;;2.00;1.10;;;10.20;76.70;;;;;;5034942;28;20724;-75
2023/01/03 01:22:08;;;;;;;2.47;1.00;;;10.10;76.70;;;;;;5030591;28;20190;-75
2023/01/03 01:24:34;;;;;;;2.77;1.37;;;10.10;76.80;;;;;;5030506;28;20999;-74
2023/01/03 01:26:59;;;;;;;1.37;1.03;;;10.10;77.00;;;;;;5028422;28;20432;-74
2023/01/03 01:29:25;;;;;;;2.40;1.10;;;10.10;77.10;;;;;;5030653;28;20262;-76
2023/01/03 01:31:51;;;;;;;1.20;0.80;;;10.20;77.00;;;;;;5031888;28;20174;-75
2023/01/03 01:34:17;;;;;;;1.63;1.17;;;10.20;76.80;;;;;;5030793;28;20201;-74
2023/01/03 01:36:44;;;;;;;2.73;1.30;;;10.20;76.80;;;;;;5028671;28;20432;-74
2023/01/03 01:39:21;;;;;;;1.40;1.10;;;10.20;77.00;;;;;;5031835;28;20186;-75
2023/01/03 01:45:01;;;;;;;2.73;1.10;;;10.10;77.40;;;;;;5031052;28;20826;-75
2023/01/03 01:47:38;;;;;;;1.70;1.30;;;10.20;77.30;;;;;;5028389;28;20408;-74
2023/01/03 01:50:25;;;;;;;3.00;1.23;;;10.20;77.10;;;;;;5034666;28;20423;-74
2023/01/03 01:53:13;;;;;;;1.83;1.20;;;10.10;77.30;;;;;;5028900;28;20991;-73
2023/01/03 01:55:56;;;;;;;1.90;1.20;;;10.00;77.40;;;;;;5032139;28;20527;-74
2023/01/03 01:58:24;;;;;;;1.80;1.27;;;10.00;77.70;;;;;;5031069;28;20796;-74
2023/01/03 02:00:50;;;;;;;2.50;1.10;;;10.00;77.80;;;;;;5023203;28;20432;-74
2023/01/03 02:03:16;;;;;;;2.13;1.40;;;10.10;77.80;;;;;;5034169;28;20482;-75
2023/01/03 02:05:45;;;;;;;3.53;1.40;;;10.10;77.30;;;;;;5034614;28;20781;-73
2023/01/03 02:08:10;;;;;;;1.93;1.27;;;10.10;77.10;;;;;;5034597;28;20181;-73
2023/01/03 02:10:49;;;;;;;1.90;1.40;;;10.10;77.30;;;;;;5032562;28;20996;-74
2023/01/03 02:13:32;;;;;;;3.50;1.37;;;10.10;77.40;;;;;;5031076;28;20181;-75
2023/01/03 02:16:36;;;;;;;1.53;1.13;;;10.10;77.40;;;;;;5027899;28;20850;-72
2023/01/03 02:19:23;;;;;;;1.30;1.10;;;10.00;77.60;;;;;;5025409;28;20428;-74
2023/01/03 02:22:22;;;;;;;1.70;1.03;;;9.90;77.80;;;;;;5026117;28;20458;-74
2023/01/03 02:24:57;;;;;;;1.53;1.00;;;9.80;78.10;;;;;;5025003;28;20560;-73
2023/01/03 02:27:59;;;;;;;3.10;1.40;;;9.70;78.30;;;;;;5031380;28;20854;-75
2023/01/03 02:30:28;;;;;;;1.20;0.97;;;9.60;78.70;;;;;;5026995;28;20423;-74
2023/01/03 02:33:24;;;;;;;1.93;1.20;;;9.60;79.00;;;;;;5032715;28;20507;-76
2023/01/03 02:36:04;;;;;;;3.23;1.30;;;9.50;79.30;;;;;;5027868;28;20459;-73
2023/01/03 02:39:17;;;;;;;1.50;1.10;;;9.60;79.60;;;;;;5026616;28;20841;-73
2023/01/03 02:41:44;;;;;;;3.43;1.40;;;9.60;79.50;;;;;;5006880;28;20429;-73
2023/01/03 02:44:15;;;;;;;2.53;1.27;;;9.60;79.30;;;;;;5006531;28;20559;-73
2023/01/03 02:46:49;;;;;;;1.87;1.47;;;9.50;79.50;;;;;;5005317;28;20428;-75
2023/01/03 02:49:41;;;;;;;1.57;1.20;;;9.50;79.70;;;;;;5006170;28;20428;-73
2023/01/03 02:52:11;;;;;;;1.70;1.00;;;9.40;79.90;;;;;;4993853;28;20511;-73
2023/01/03 02:54:46;;;;;;;2.30;1.23;;;9.30;80.50;;;;;;5005028;28;20454;-76
2023/01/03 02:57:22;;;;;;;2.40;1.20;;;9.30;80.60;;;;;;5009254;28;20440;-75
2023/01/03 02:59:52;;;;;;;1.50;1.10;;;9.30;80.60;;;;;;5008086;28;20424;-75
2023/01/03 03:02:21;;;;;;;2.03;1.20;;;9.30;80.50;;;;;;5009700;28;20559;-74
2023/01/03 03:04:53;;;;;;;4.43;1.00;;;9.30;80.60;;;;;;5005834;28;20453;-75
2023/01/03 03:07:25;;;;;;;1.50;1.10;;;9.20;80.60;;;;;;5005182;28;20429;-75
2023/01/03 03:15:29;;;;;;;1.60;1.13;;;9.00;81.40;;;;;;5027375;28;20562;-75
2023/01/03 03:18:00;;;;;;;2.50;1.27;;;9.00;81.40;;;;;;5028597;28;21161;-74
2023/01/03 03:26:08;;;;;;;1.90;1.33;;;9.00;81.80;;;;;;5029588;28;20451;-74
2023/01/03 03:28:37;;;;;;;2.07;1.37;;;9.00;81.90;;;;;;5024260;28;20473;-74
2023/01/03 03:31:14;;;;;;;4.03;1.10;;;9.00;81.80;;;;;;5028117;28;20416;-74
2023/01/03 03:33:55;;;;;;;1.33;1.10;;;9.00;81.80;;;;;;5024982;28;20427;-76
2023/01/03 03:36:39;;;;;;;1.27;1.00;;;9.00;81.70;;;;;;5029386;28;20443;-74
2023/01/03 03:44:58;;;;;;;1.77;1.17;;;9.00;81.20;;;;;;5027571;28;20407;-74
2023/01/03 03:45:00;;;;;;;2.73;1.30;;;9.00;81.40;;;;;;5022038;28;20559;-75
2023/01/03 03:47:42;;;;;;;1.60;1.10;;;9.00;81.40;;;;;;5027528;28;20738;-75
2023/01/03 03:50:16;;;;;;;2.20;1.50;;;8.90;81.20;;;;;;5033320;28;20454;-78
2023/01/03 03:52:45;;;;;;;2.37;1.20;;;8.90;81.20;;;;;;5031267;28;20898;-77
2023/01/03 03:55:16;;;;;;;2.43;1.40;;;8.80;81.50;;;;;;5027123;28;20985;-77
2023/01/03 03:57:50;;;;;;;2.17;1.40;;;8.80;81.50;;;;;;5029118;28;20444;-74
2023/01/03 04:00:21;;;;;;;2.17;1.40;;;8.80;81.70;;;;;;5027442;28;20427;-76
2023/01/03 04:02:47;;;;;;;2.40;1.40;;;8.80;81.50;;;;;;5026241;28;20463;-78
2023/01/03 04:05:17;;;;;;;1.93;1.30;;;8.80;81.50;;;;;;5029844;28;20470;-78
2023/01/03 04:07:43;;;;;;;2.97;1.40;;;8.70;81.50;;;;;;5023922;28;20424;-77
2023/01/03 04:10:10;;;;;;;1.60;1.30;;;8.60;81.80;;;;;;5030802;28;20435;-77
2023/01/03 04:12:36;;;;;;;5.97;1.40;;;8.60;81.90;;;;;;5026652;28;20232;-76
2023/01/03 04:15:02;;;;;;;2.43;1.40;;;8.60;82.20;;;;;;5021614;28;20463;-77
2023/01/03 04:17:28;;;;;;;4.60;1.53;;;8.60;82.20;;;;;;5029722;28;20673;-76
2023/01/03 04:19:54;;;;;;;2.90;1.50;;;8.60;82.20;;;;;;5025710;28;20511;-77
2023/01/03 04:22:19;;;;;;;2.37;1.60;;;8.60;82.40;;;;;;5022722;28;20950;-76
2023/01/03 04:24:45;;;;;;;2.03;1.70;;;8.50;82.40;;;;;;5029497;28;20251;-77
2023/01/03 04:27:10;;;;;;;3.10;1.50;;;8.40;82.70;;;;;;5031010;28;20181;-77
2023/01/03 04:29:36;;;;;;;2.90;1.70;;;8.40;83.00;;;;;;5027111;28;20609;-77
2023/01/03 04:32:02;;;;;;;2.80;1.50;;;8.40;83.10;;;;;;5033280;28;20211;-75
2023/01/03 04:34:28;;;;;;;2.70;1.50;;;8.40;83.10;;;;;;5032389;28;20215;-76
2023/01/03 04:36:53;;;;;;;3.47;1.87;;;8.40;83.10;;;;;;5032718;28;20532;-76
2023/01/03 04:39:19;;;;;;;3.73;1.50;;;8.40;83.30;;;;;;5035985;28;20262;-76
2023/01/03 04:41:44;;;;;;;2.60;1.57;;;8.40;83.30;;;;;;5033322;28;20245;-76
2023/01/03 04:44:10;;;;;;;3.07;1.80;;;8.40;83.30;;;;;;5032316;28;20209;-76
2023/01/03 04:46:38;;;;;;;5.70;1.80;;;8.30;83.40;;;;;;5031750;28;20209;-76
2023/01/03 04:49:05;;;;;;;2.87;1.63;;;8.30;83.40;;;;;;5032742;28;20243;-76
2023/01/03 04:51:31;;;;;;;2.60;1.60;;;8.30;83.60;;;;;;5026473;28;20453;-76
2023/01/03 04:53:57;;;;;;;3.97;1.80;;;8.30;83.70;;;;;;5034293;28;20467;-76
2023/01/03 04:56:26;;;;;;;2.60;1.60;;;8.30;83.60;;;;;;5032841;28;20451;-77
2023/01/03 04:58:52;;;;;;;2.53;1.67;;;8.30;83.70;;;;;;5030255;28;20220;-76
2023/01/03 05:01:18;;;;;;;3.03;1.57;;;8.30;83.70;;;;;;5043105;28;20428;-75
2023/01/03 05:03:43;;;;;;;2.13;1.40;;;8.30;83.80;;;;;;5046348;28;20217;-75
2023/01/03 05:06:10;;;;;;;3.03;1.70;;;8.30;83.80;;;;;;5049672;28;20229;-75
2023/01/03 05:08:37;;;;;;;1.97;1.70;;;8.30;83.70;;;;;;5046388;28;20193;-75
2023/01/03 05:11:04;;;;;;;2.03;1.40;;;8.20;83.80;;;;;;5049118;28;20431;-76
2023/01/03 05:13:31;;;;;;;2.27;1.87;;;8.20;83.80;;;;;;5054379;28;20452;-76
2023/01/03 05:16:01;;;;;;;2.80;1.70;;;8.20;83.80;;;;;;5036796;28;20456;-76
2023/01/03 05:18:27;;;;;;;4.00;1.73;;;8.30;84.00;;;;;;5033344;28;20443;-77
2023/01/03 05:26:22;;;;;;;3.13;1.93;;;8.30;83.70;;;;;;5031997;28;20969;-74
2023/01/03 05:28:51;;;;;;;4.23;1.80;;;8.40;83.60;;;;;;5029463;28;20419;-74
2023/01/03 05:31:17;;;;;;;2.70;1.87;;;8.30;83.60;;;;;;5032174;28;20416;-74
2023/01/03 05:33:42;;;;;;;3.80;1.90;;;8.20;83.80;;;;;;5028162;28;20501;-75
2023/01/03 05:36:09;;;;;;;3.70;1.90;;;8.20;83.80;;;;;;5029741;28;20217;-75
2023/01/03 05:38:35;;;;;;;2.63;1.80;;;8.10;84.00;;;;;;5028365;28;20696;-75
2023/01/03 05:41:01;;;;;;;4.10;1.73;;;8.00;84.10;;;;;;5029560;28;20416;-76
2023/01/03 05:43:26;;;;;;;5.23;2.37;;;8.00;84.40;;;;;;5029341;28;20569;-75
2023/01/03 05:45:52;;;;;;;2.60;1.80;;;7.90;84.60;;;;;;5027748;28;20251;-73
2023/01/03 05:48:19;;;;;;;4.00;2.00;;;7.90;84.70;;;;;;5024457;28;20213;-74
2023/01/03 05:50:46;;;;;;;4.33;1.90;;;7.80;85.20;;;;;;5027071;28;20192;-73
2023/01/03 05:53:12;;;;;;;2.70;2.00;;;7.80;85.50;;;;;;5029302;28;20494;-74
2023/01/03 05:55:38;;;;;;;2.93;2.00;;;7.80;85.30;;;;;;5028773;28;20466;-75
2023/01/03 05:58:05;;;;;;;4.27;1.77;;;7.80;85.30;;;;;;5037738;28;20440;-74
2023/01/03 06:00:31;;;;;;;3.60;1.93;;;7.70;85.50;;;;;;5043585;28;20451;-75
2023/01/03 06:02:56;;;;;;;3.17;1.97;;;7.80;85.50;;;;;;5041083;28;20468;-75
2023/01/03 06:05:22;;;;;;;4.50;2.17;;;7.70;85.60;;;;;;5037080;28;20547;-75
2023/01/03 06:07:48;;;;;;;3.33;2.27;;;7.70;85.70;;;;;;5031210;28;20200;-74
2023/01/03 06:10:14;;;;;;;4.17;2.10;;;7.60;85.90;;;;;;5032592;28;20234;-75
2023/01/03 06:12:39;;;;;;;3.93;2.23;;;7.60;85.90;;;;;;5032542;28;20193;-75
2023/01/03 06:15:06;;;;;;;3.00;1.80;;;7.70;86.00;;;;;;5029512;28;20689;-74
2023/01/03 06:20:15;;;;;;;3.30;2.07;;;7.70;85.60;;;;;;5030115;28;20422;-75
2023/01/03 06:22:41;;;;;;;5.50;2.00;;;7.70;85.70;;;;;;5028697;28;20472;-75
2023/01/03 06:25:07;;;;;;;5.23;1.97;;;7.60;85.90;;;;;;5027600;28;20686;-75
2023/01/03 06:27:32;;;;;;;3.73;2.43;;;7.60;86.20;;;;;;5028735;28;20272;-75
2023/01/03 06:29:58;;;;;;;2.63;1.60;;;7.60;86.00;;;;;;5028173;28;20432;-76
2023/01/03 06:32:24;;;;;;;8.10;2.03;;;7.60;86.00;;;;;;5027836;28;20191;-77
2023/01/03 06:34:50;;;;;;;3.27;2.27;;;7.60;86.00;;;;;;5024472;28;20210;-77
2023/01/03 06:37:16;;;;;;;5.07;2.60;;;7.60;86.20;;;;;;5027653;28;20197;-76
2023/01/03 06:39:41;;;;;;;3.43;2.20;;;7.50;86.30;;;;;;5031882;28;20208;-76
2023/01/03 06:53:29;;;;;;;4.00;2.00;;;7.40;87.10;;;;;;5049194;28;21014;-76
2023/01/03 06:55:55;;;;;;;4.23;2.17;;;7.40;87.00;;;;;;5047447;28;20462;-76
2023/01/03 06:58:20;;;;;;;7.37;2.47;;;7.40;87.00;;;;;;5047908;28;20500;-76
2023/01/03 07:00:46;;;;;;;3.37;2.47;;;7.40;87.00;;;;;;5051018;28;20276;-76
2023/01/03 07:03:11;;;;;;;3.23;2.10;;;7.50;86.90;;;;;;5050090;28;20287;-77
2023/01/03 07:05:37;;;;;;;49.50;4.30;;;7.40;86.90;;;;;;5048838;28;20220;-75
2023/01/03 07:08:03;;;;;;;3.43;2.60;;;7.40;87.00;;;;;;5045554;28;20211;-76
2023/01/03 07:10:28;;;;;;;8.23;2.90;;;7.40;87.00;;;;;;5036951;28;20227;-73
2023/01/03 07:15:43;;;;;;;2.73;2.30;;;7.30;87.10;;;;;;5049925;28;20282;-74
2023/01/03 07:18:08;;;;;;;3.93;2.70;;;7.20;87.30;;;;;;5043646;28;20429;-75
2023/01/03 07:20:34;;;;;;;3.07;2.30;;;7.20;87.70;;;;;;5031902;28;20516;-75
2023/01/03 07:23:00;;;;;;;7.70;3.40;;;7.20;87.80;;;;;;5026013;28;20204;-74
2023/01/03 07:25:25;;;;;;;4.23;2.57;;;7.20;88.00;;;;;;5032583;28;20234;-74
2023/01/03 07:27:55;;;;;;;3.63;2.17;;;7.30;88.10;;;;;;5029370;28;20173;-74
2023/01/03 07:30:21;;;;;;;5.13;2.20;;;7.30;88.00;;;;;;5034387;28;20289;-75
2023/01/03 07:32:46;;;;;;;4.97;2.27;;;7.30;87.70;;;;;;5036778;28;20456;-74
2023/01/03 07:35:12;;;;;;;3.37;2.20;;;7.30;87.60;;;;;;5035199;28;20550;-74
2023/01/03 07:37:38;;;;;;;2.80;1.60;;;7.30;87.70;;;;;;5026917;28;20191;-75
2023/01/03 07:40:04;;;;;;;4.27;1.70;;;7.30;87.70;;;;;;5038222;28;20188;-73
2023/01/03 07:45:14;;;;;;;5.70;3.00;;;7.40;87.10;;;;;;5030372;28;20466;-75
2023/01/03 07:47:44;;;;;;;8.20;3.50;;;7.40;87.00;;;;;;5032446;28;20447;-79
2023/01/03 07:50:09;;;;;;;3.90;2.63;;;7.30;86.60;;;;;;5039318;28;20181;-77
2023/01/03 07:52:35;;;;;;;7.07;2.80;;;7.20;86.60;;;;;;5032123;28;20767;-76
2023/01/03 07:55:00;;;;;;;6.60;2.53;;;7.20;86.90;;;;;;5029640;28;20276;-78
2023/01/03 07:57:26;;;;;;;5.80;3.20;;;7.20;86.90;;;;;;5033941;28;20232;-76
2023/01/03 07:59:52;;;;;;;5.83;2.90;;;7.20;87.00;;;;;;5030724;28;20207;-75
2023/01/03 08:02:19;;;;;;;9.33;3.00;;;7.20;87.00;;;;;;5026485;28;20432;-75
2023/01/03 08:04:44;;;;;;;5.23;3.03;;;7.20;86.90;;;;;;5026288;28;20209;-76
2023/01/03 08:07:10;;;;;;;4.67;3.13;;;7.20;86.80;;;;;;5026606;28;20431;-75
2023/01/03 08:15:04;;;;;;;6.67;3.47;;;7.30;86.60;;;;;;5033068;28;20466;-77
2023/01/03 08:17:30;;;;;;;4.40;3.00;;;7.40;86.60;;;;;;5027918;28;20415;-75
2023/01/03 08:19:55;;;;;;;5.57;2.97;;;7.40;86.60;;;;;;5036890;28;20523;-74
2023/01/03 08:22:21;;;;;;;7.90;3.63;;;7.50;86.60;;;;;;5038554;28;20228;-74
2023/01/03 08:24:46;;;;;;;4.97;2.63;;;7.50;86.50;;;;;;5038577;28;20209;-74
2023/01/03 08:27:12;;;;;;;4.93;3.20;;;7.60;86.30;;;;;;5029765;28;20205;-75
2023/01/03 08:29:37;;;;;;;6.70;3.20;;;7.70;86.20;;;;;;5030357;28;20185;-75
2023/01/03 08:32:04;;;;;;;5.33;3.30;;;7.70;86.20;;;;;;5030014;28;20235;-74
2023/01/03 08:34:35;;;;;;;6.00;3.80;;;7.80;86.00;;;;;;5022049;28;20209;-73
2023/01/03 08:37:06;;;;;;;8.23;3.40;;;7.90;86.30;;;;;;5027511;28;20426;-75
2023/01/03 08:39:38;;;;;;;7.50;3.80;;;8.00;85.70;;;;;;5028011;28;20886;-75
2023/01/03 08:42:07;;;;;;;6.40;3.40;;;8.00;85.50;;;;;;5025721;28;20436;-75
2023/01/03 08:44:33;;;;;;;4.77;3.13;;;8.10;84.90;;;;;;5024132;28;20479;-75
2023/01/03 08:47:03;;;;;;;7.30;3.73;;;8.20;84.10;;;;;;5030818;28;20454;-74
2023/01/03 08:49:29;;;;;;;7.50;3.77;;;8.30;83.70;;;;;;5028890;28;20452;-76
2023/01/03 08:51:55;;;;;;;9.10;4.17;;;8.30;83.30;;;;;;5030996;28;20454;-76
2023/01/03 08:54:21;;;;;;;8.63;3.73;;;8.30;83.00;;;;;;5025128;28;20490;-74
2023/01/03 08:56:46;;;;;;;5.63;3.50;;;8.20;83.10;;;;;;5027864;28;20208;-75
2023/01/03 08:59:12;;;;;;;7.10;4.20;;;8.20;83.10;;;;;;5028319;28;20351;-74
2023/01/03 09:01:37;;;;;;;7.10;3.87;;;8.20;83.30;;;;;;5027920;28;20216;-74
2023/01/03 09:04:04;;;;;;;6.70;4.40;;;8.10;83.40;;;;;;5026853;28;20215;-75
2023/01/03 09:06:30;;;;;;;7.77;4.33;;;8.10;83.70;;;;;;5035475;28;20228;-75
2023/01/03 09:08:56;;;;;;;6.10;3.73;;;8.00;84.00;;;;;;5025410;28;20416;-75
2023/01/03 09:11:21;;;;;;;10.07;4.27;;;8.00;84.40;;;;;;5026413;28;20447;-75
2023/01/03 09:13:47;;;;;;;8.30;4.17;;;8.10;84.40;;;;;;5026072;28;20205;-74
2023/01/03 09:16:12;;;;;;;10.77;4.67;;;8.10;84.40;;;;;;5024367;28;21015;-77
2023/01/03 09:18:39;;;;;;;7.40;4.37;;;8.20;84.10;;;;;;5031511;28;20196;-75
2023/01/03 09:21:06;;;;;;;8.20;4.60;;;8.40;83.70;;;;;;5030934;28;20196;-75
2023/01/03 09:23:33;;;;;;;5.83;4.10;;;8.30;83.40;;;;;;5027089;28;20526;-75
2023/01/03 09:25:59;;;;;;;7.30;3.70;;;8.40;83.40;;;;;;5022830;28;20941;-75
2023/01/03 09:28:25;;;;;;;6.80;4.00;;;8.40;83.30;;;;;;5031176;28;20469;-74
2023/01/03 09:30:51;;;;;;;8.50;3.80;;;8.40;83.10;;;;;;5030486;28;20726;-75
2023/01/03 09:33:17;;;;;;;7.17;4.00;;;8.40;83.10;;;;;;5039434;28;20450;-75
2023/01/03 09:35:42;;;;;;;5.57;3.33;;;8.50;83.30;;;;;;5036393;28;20692;-74
2023/01/03 09:38:08;;;;;;;6.70;3.57;;;8.50;83.10;;;;;;5041078;28;20197;-75
2023/01/03 09:40:44;;;;;;;6.50;3.60;;;8.60;83.10;;;;;;5038551;28;20188;-74
2023/01/03 09:43:16;;;;;;;10.50;3.83;;;8.60;82.80;;;;;;5041735;28;20513;-74
2023/01/03 09:45:50;;;;;;;7.30;3.80;;;8.70;82.80;;;;;;5039423;28;20523;-76
2023/01/03 09:48:18;;;;;;;5.57;3.60;;;8.70;82.80;;;;;;5038056;28;20887;-75
2023/01/03 09:50:45;;;;;;;8.97;3.97;;;8.80;82.50;;;;;;5032559;28;20523;-75
2023/01/03 10:05:06;;;;;;;6.50;4.00;;;9.00;81.40;;;;;;5028101;28;20471;-75
2023/01/03 10:07:46;;;;;;;13.60;4.07;;;9.00;80.80;;;;;;5029671;28;20507;-75
2023/01/03 10:10:38;;;;;;;7.10;4.20;;;9.00;80.90;;;;;;5029557;28;20435;-75
2023/01/03 10:13:46;;;;;;;8.50;3.87;;;8.90;81.20;;;;;;5029518;28;20726;-74
2023/01/03 10:16:30;;;;;;;5.80;3.50;;;8.90;81.40;;;;;;5017978;28;20452;-75
2023/01/03 10:19:05;;;;;;;8.17;3.50;;;8.90;81.50;;;;;;5027849;28;20855;-75
2023/01/03 10:21:45;;;;;;;8.77;4.00;;;8.90;81.70;;;;;;5026649;28;20443;-76
2023/01/03 10:24:20;;;;;;;7.20;4.20;;;8.90;81.70;;;;;;5023259;28;22317;-75
2023/01/03 10:26:50;;;;;;;4.87;3.70;;;9.00;81.50;;;;;;5025706;28;20490;-74
2023/01/03 10:29:17;;;;;;;6.77;4.00;;;9.00;81.80;;;;;;5023952;28;20795;-75
2023/01/03 10:32:05;;;;;;;6.77;3.80;;;9.00;81.80;;;;;;5033533;28;20419;-74
2023/01/03 10:34:30;;;;;;;7.83;4.00;;;9.00;81.80;;;;;;5022811;28;20526;-75
2023/01/03 10:36:56;;;;;;;6.43;4.33;;;9.10;81.20;;;;;;5025107;28;20516;-75
2023/01/03 10:39:30;;;;;;;6.57;3.97;;;9.10;81.10;;;;;;5023596;28;20199;-74
2023/01/03 10:41:58;;;;;;;6.50;3.63;;;9.20;81.40;;;;;;5022971;28;20250;-75
2023/01/03 10:44:31;;;;;;;8.43;4.17;;;9.20;81.40;;;;;;5023926;28;20911;-75
2023/01/03 10:47:07;;;;;;;6.70;4.30;;;9.30;81.10;;;;;;5019210;28;20425;-76
2023/01/03 10:49:32;;;;;;;10.90;4.57;;;9.40;80.50;;;;;;5023570;28;20420;-76
2023/01/03 10:52:17;;;;;;;12.03;3.77;;;9.50;80.20;;;;;;5025256;28;20431;-76
2023/01/03 10:54:43;;;;;;;9.80;5.47;;;9.70;79.90;;;;;;5025903;28;20228;-74
2023/01/03 10:57:42;;;;;;;6.57;3.60;;;9.90;79.20;;;;;;5031377;28;20467;-75
2023/01/03 11:00:21;;;;;;;7.73;4.10;;;10.10;79.20;;;;;;5029032;28;20205;-76
2023/01/03 11:02:47;;;;;;;4.30;3.30;;;10.40;78.00;;;;;;5029073;28;20538;-76
2023/01/03 11:05:22;;;;;;;6.17;3.70;;;10.70;76.70;;;;;;5028272;28;20490;-76
2023/01/03 11:08:33;;;;;;;5.47;3.00;;;10.90;75.80;;;;;;5028260;28;20489;-76
2023/01/03 11:11:00;;;;;;;4.67;2.80;;;11.10;74.80;;;;;;5027453;28;20415;-75
2023/01/03 11:13:40;;;;;;;5.90;3.20;;;11.10;74.00;;;;;;5027957;28;20816;-78
2023/01/03 11:16:17;;;;;;;6.80;3.30;;;11.10;73.90;;;;;;5031949;28;20486;-74
2023/01/03 11:18:58;;;;;;;4.30;2.97;;;11.20;73.50;;;;;;5031687;28;20430;-77
2023/01/03 11:21:58;;;;;;;7.33;3.37;;;11.20;72.90;;;;;;5029384;28;20423;-74
2023/01/03 11:25:12;;;;;;;4.03;2.60;;;11.10;72.90;;;;;;5029183;28;20480;-76
2023/01/03 11:27:57;;;;;;;3.50;2.50;;;10.90;73.20;;;;;;4990878;28;21181;-75
2023/01/03 11:30:44;;;;;;;4.13;2.63;;;10.90;73.00;;;;;;5028720;28;20418;-74
2023/01/03 11:33:28;;;;;;;11.37;3.00;;;10.80;72.70;;;;;;5029547;28;20428;-78
2023/01/03 11:36:12;;;;;;;5.70;3.00;;;10.80;72.90;;;;;;5026994;28;20464;-73
2023/01/03 11:38:56;;;;;;;4.00;2.90;;;10.80;72.90;;;;;;5023680;28;20926;-77
2023/01/03 11:41:56;;;;;;;6.60;3.47;;;10.70;73.30;;;;;;5025033;28;20424;-78
2023/01/03 11:44:59;;;;;;;6.60;2.67;;;10.70;73.30;;;;;;5025496;28;20980;-76
2023/01/03 11:47:27;;;;;;;4.57;1.90;;;10.60;72.60;;;;;;5025081;28;20529;-76
2023/01/03 11:50:23;;;;;;;7.50;3.00;;;10.60;72.90;;;;;;5027215;28;20424;-75
2023/01/03 11:53:02;;;;;;;3.23;1.97;;;10.50;73.20;;;;;;5026807;28;20435;-75
2023/01/03 11:56:09;;;;;;;4.30;2.20;;;10.50;72.90;;;;;;5025624;28;20466;-77
2023/01/03 11:58:53;;;;;;;2.20;1.50;;;10.60;72.90;;;;;;5025871;28;20871;-74
2023/01/03 12:01:19;;;;;;;3.33;2.10;;;10.60;72.60;;;;;;5027476;28;20434;-73
2023/01/03 12:04:02;;;;;;;2.70;1.40;;;10.60;72.30;;;;;;5025507;28;20463;-77
2023/01/03 12:06:37;;;;;;;2.30;1.20;;;10.60;72.40;;;;;;5025813;28;20189;-76
2023/01/03 12:09:17;;;;;;;3.83;1.37;;;10.50;72.40;;;;;;5021886;28;20467;-77
2023/01/03 12:11:51;;;;;;;3.40;1.47;;;10.60;72.30;;;;;;5026045;28;20412;-76
2023/01/03 12:14:25;;;;;;;1.50;1.13;;;10.70;71.60;;;;;;5021526;28;20578;-76
2023/01/03 12:17:05;;;;;;;1.87;1.20;;;10.80;71.00;;;;;;5022486;28;20421;-76
2023/01/03 12:19:44;;;;;;;1.73;1.40;;;10.90;70.80;;;;;;5023170;28;20422;-75
2023/01/03 12:22:32;;;;;;;3.90;1.67;;;10.90;71.40;;;;;;5021188;28;20508;-75
2023/01/03 12:25:20;;;;;;;4.17;1.40;;;10.80;71.10;;;;;;5020889;28;20448;-76
2023/01/03 12:28:09;;;;;;;3.47;1.27;;;10.90;71.00;;;;;;5022962;28;20923;-77
2023/01/03 12:30:55;;;;;;;1.67;1.20;;;10.90;71.30;;;;;;5020913;28;20791;-76
2023/01/03 12:33:31;;;;;;;1.50;1.00;;;11.00;71.00;;;;;;5026628;28;20445;-75
2023/01/03 12:36:17;;;;;;;1.30;0.90;;;11.00;70.50;;;;;;5030952;28;20542;-76
2023/01/03 12:38:54;;;;;;;6.10;1.27;;;11.10;69.90;;;;;;5022513;28;20443;-75
2023/01/03 12:41:40;;;;;;;2.80;1.40;;;11.20;69.50;;;;;;5022510;28;20432;-76
2023/01/03 12:44:16;;;;;;;1.90;1.23;;;11.20;69.70;;;;;;5024983;28;20459;-76
2023/01/03 12:46:51;;;;;;;3.20;1.20;;;11.30;69.80;;;;;;5024850;28;20566;-75
2023/01/03 12:49:22;;;;;;;3.00;1.37;;;11.50;69.40;;;;;;5023675;28;20442;-76
2023/01/03 12:51:48;;;;;;;4.90;1.10;;;11.60;68.20;;;;;;5026281;28;20810;-75
2023/01/03 12:54:44;;;;;;;1.40;0.90;;;11.80;68.00;;;;;;5030461;28;20458;-78
2023/01/03 12:57:30;;;;;;;3.43;1.40;;;12.00;67.50;;;;;;5027899;28;20223;-76
2023/01/03 13:00:24;;;;;;;3.27;1.50;;;12.10;68.20;;;;;;5030985;28;20507;-77
2023/01/03 13:02:56;;;;;;;2.60;1.30;;;12.30;67.30;;;;;;5027108;28;20467;-77
2023/01/03 13:05:25;;;;;;;2.57;2.10;;;12.40;66.90;;;;;;5029479;28;20460;-76
2023/01/03 13:08:10;;;;;;;4.13;2.07;;;12.40;68.20;;;;;;5031889;28;20428;-76
2023/01/03 13:10:39;;;;;;;4.87;2.80;;;12.50;68.50;;;;;;5031184;28;20477;-76
2023/01/03 13:13:05;;;;;;;12.40;2.43;;;12.50;69.40;;;;;;5032882;28;20424;-75
2023/01/03 13:15:33;;;;;;;3.67;1.80;;;12.40;68.60;;;;;;5026775;28;20974;-76
2023/01/03 13:18:19;;;;;;;2.20;1.03;;;12.50;68.60;;;;;;5030629;28;20432;-76
2023/01/03 13:20:46;;;;;;;1.47;1.10;;;12.60;66.90;;;;;;5019351;28;20940;-76
2023/01/03 13:23:29;;;;;;;5.00;1.23;;;12.70;66.00;;;;;;5026242;28;20475;-76
2023/01/03 13:26:04;;;;;;;2.83;1.10;;;12.80;65.70;;;;;;5025615;28;20455;-75
2023/01/03 13:28:37;;;;;;;1.33;0.90;;;13.00;65.00;;;;;;5026484;28;20924;-77
2023/01/03 13:31:17;;;;;;;2.70;1.10;;;13.00;64.20;;;;;;5028767;28;20427;-75
2023/01/03 13:33:56;;;;;;;1.23;1.00;;;13.00;64.40;;;;;;5032219;28;20968;-77
2023/01/03 13:36:23;;;;;;;3.50;1.40;;;13.00;63.50;;;;;;5026258;28;20491;-75
2023/01/03 13:38:50;;;;;;;1.93;1.10;;;12.90;63.80;;;;;;5029266;28;20463;-77
2023/01/03 13:41:34;;;;;;;1.53;1.23;;;12.90;64.40;;;;;;5027883;28;20425;-77
2023/01/03 13:44:19;;;;;;;7.33;1.47;;;13.00;64.10;;;;;;5026281;28;20958;-76
2023/01/03 13:46:46;;;;;;;1.63;1.10;;;13.10;63.80;;;;;;5027717;28;20428;-76
2023/01/03 13:49:22;;;;;;;3.43;1.37;;;12.90;64.40;;;;;;5030698;28;20498;-76
2023/01/03 13:51:51;;;;;;;2.17;1.50;;;12.80;65.00;;;;;;5029093;28;20412;-77
2023/01/03 13:54:17;;;;;;;4.93;1.37;;;12.70;65.70;;;;;;5031010;28;20440;-77
2023/01/03 13:56:42;;;;;;;1.80;1.37;;;12.50;66.40;;;;;;5030967;28;21200;-76
2023/01/03 13:59:16;;;;;;;3.53;1.40;;;12.40;66.70;;;;;;5031819;28;20228;-76
2023/01/03 14:02:01;;;;;;;1.90;1.23;;;12.20;66.60;;;;;;5025393;28;20189;-75
2023/01/03 14:04:49;;;;;;;2.47;1.37;;;12.00;66.40;;;;;;5030920;28;20962;-77
2023/01/03 14:07:30;;;;;;;2.10;1.20;;;11.90;67.30;;;;;;5032293;28;20432;-76
2023/01/03 14:10:25;;;;;;;1.43;1.00;;;11.80;67.60;;;;;;5033511;28;20445;-76
2023/01/03 14:13:12;;;;;;;3.43;1.17;;;11.80;67.60;;;;;;5028613;28;20492;-74
2023/01/03 14:15:37;;;;;;;1.87;1.20;;;11.70;67.90;;;;;;5027895;28;20558;-77
2023/01/03 14:18:19;;;;;;;1.53;0.90;;;11.80;68.00;;;;;;5031874;28;20435;-77
2023/01/03 14:20:49;;;;;;;1.70;1.10;;;11.80;67.90;;;;;;5030872;28;20182;-76